»·PEaware :: N805RJ L65-KIYK

N805RJ :: L65-KIYK

FLIGHT INFORMATION

Flight Status: Arrived
Operator: Privately registered:
United States
More flights under this callsign
Pilot: Rickie J. (22768)
Aircraft: CESSNA 172 SKYHAWK
(C172)
More flights by this aircraft type
Origin: L65 Perris Valley
United States
Destination: KIYK Inyokern
United States
More flights between these airports :: More routes between these airports
Route: PERIS WESIN V186 DARTS V459 LHS
File this flight plan on PilotEdge
Remarks:
Altitude:
(Current/Filed)
10,500ft
Speed:
(Current/Filed)
120kts
Departed: 30-Dec-20 08:58 PM
Arrived: 30-Dec-20 10:26 PM
Distance/Time
Traveled:
117nm/1:28
Distance/Time
To Go:
Arrived

Flight Plot

Page will automatically refresh every two minutes.

Flight plan parsing failed; only flown route is shown


Map Options




Map Legend


Flown Route
Filed Route
Departure Airport
Arrival Airport
Navaid (VOR, NDB)
Fix

Horizontal Profiles

Position Reports

Time Latitude Longitude Heading Altitude Ground
Speed
30-Dec-20 20:03 33.761459 -117.218586 52 1417ft 0kts
30-Dec-20 20:04 33.761459 -117.218586 52 1417ft 0kts
30-Dec-20 20:05 33.761459 -117.218586 52 1417ft 0kts
30-Dec-20 20:06 33.761459 -117.218586 52 1417ft 0kts
30-Dec-20 20:07 33.761459 -117.218586 52 1417ft 0kts
30-Dec-20 20:08 33.761459 -117.218586 52 1417ft 0kts
30-Dec-20 20:09 33.761459 -117.218586 52 1417ft 0kts
30-Dec-20 20:10 33.761459 -117.218586 52 1417ft 0kts
30-Dec-20 20:11 33.761459 -117.218586 52 1417ft 0kts
30-Dec-20 20:12 33.761459 -117.218586 52 1417ft 0kts
30-Dec-20 20:13 33.761459 -117.218586 52 1417ft 0kts
30-Dec-20 20:14 33.761459 -117.218586 52 1417ft 0kts
30-Dec-20 20:15 33.761459 -117.218586 52 1417ft 0kts
30-Dec-20 20:16 33.761459 -117.218586 52 1417ft 0kts
30-Dec-20 20:17 33.761459 -117.218586 52 1417ft 0kts
30-Dec-20 20:18 33.761459 -117.218586 52 1417ft 0kts
30-Dec-20 20:19 33.761459 -117.218586 52 1417ft 0kts
30-Dec-20 20:20 33.761459 -117.218586 52 1417ft 0kts
30-Dec-20 20:21 33.761459 -117.218586 52 1417ft 0kts
30-Dec-20 20:22 33.761459 -117.218586 52 1417ft 0kts
30-Dec-20 20:23 33.761459 -117.218586 52 1417ft 0kts
30-Dec-20 20:24 33.761459 -117.218586 52 1417ft 0kts
30-Dec-20 20:25 33.761459 -117.218586 52 1417ft 0kts
30-Dec-20 20:26 33.761459 -117.218586 52 1417ft 0kts
30-Dec-20 20:27 33.761459 -117.218586 52 1417ft 0kts
30-Dec-20 20:28 33.761459 -117.218586 52 1417ft 0kts
30-Dec-20 20:29 33.761459 -117.218586 52 1417ft 0kts
30-Dec-20 20:30 33.761459 -117.218586 52 1417ft 0kts
30-Dec-20 20:31 33.761459 -117.218586 52 1417ft 0kts
30-Dec-20 20:32 33.761459 -117.218586 52 1417ft 0kts
30-Dec-20 20:33 33.761459 -117.218586 52 1417ft 0kts
30-Dec-20 20:34 33.761459 -117.218586 52 1417ft 0kts
30-Dec-20 20:35 33.761459 -117.218586 52 1417ft 0kts
30-Dec-20 20:36 33.761459 -117.218586 52 1417ft 0kts
30-Dec-20 20:37 33.761459 -117.218586 52 1417ft 0kts
30-Dec-20 20:38 33.761459 -117.218586 52 1417ft 0kts
30-Dec-20 20:39 33.761459 -117.218586 52 1417ft 0kts
30-Dec-20 20:40 33.761459 -117.218586 52 1417ft 0kts
30-Dec-20 20:41 33.761459 -117.218586 52 1417ft 0kts
30-Dec-20 20:42 33.761459 -117.218586 52 1417ft 0kts
30-Dec-20 20:43 33.761459 -117.218586 52 1417ft 0kts
30-Dec-20 20:44 33.761459 -117.218586 52 1417ft 0kts
30-Dec-20 20:45 33.761459 -117.218586 52 1417ft 0kts
30-Dec-20 20:46 33.761459 -117.218586 52 1417ft 0kts
30-Dec-20 20:47 33.761459 -117.218586 52 1417ft 0kts
30-Dec-20 20:48 33.761459 -117.218586 52 1417ft 0kts
30-Dec-20 20:49 33.761459 -117.218586 52 1417ft 0kts
30-Dec-20 20:50 33.761459 -117.218586 52 1417ft 0kts
30-Dec-20 20:51 33.761409 -117.218396 141 1417ft 3kts
30-Dec-20 20:52 33.760083 -117.218193 167 1417ft 5kts
30-Dec-20 20:53 33.758109 -117.217440 109 1417ft 1kts
30-Dec-20 20:54 33.758109 -117.217440 109 1417ft 0kts
30-Dec-20 20:55 33.758109 -117.217440 109 1417ft 0kts
30-Dec-20 20:56 33.758109 -117.217440 109 1417ft 0kts
30-Dec-20 20:57 33.760265 -117.217680 345 1417ft 56kts
30-Dec-20 20:58 33.776046 -117.233591 245 1979ft 93kts
30-Dec-20 20:59 33.751099 -117.230721 159 2774ft 103kts
30-Dec-20 21:00 33.729365 -117.207359 151 3574ft 105kts
30-Dec-20 21:01 33.702835 -117.203709 196 4368ft 95kts
30-Dec-20 21:02 33.676744 -117.210775 198 5074ft 96kts
30-Dec-20 21:03 33.650803 -117.218425 198 5766ft 95kts
30-Dec-20 21:04 33.624585 -117.226224 197 6366ft 98kts
30-Dec-20 21:05 33.598252 -117.234061 196 6967ft 96kts
30-Dec-20 21:06 33.579672 -117.250642 281 7551ft 101kts
30-Dec-20 21:07 33.601131 -117.274824 321 8062ft 110kts
30-Dec-20 21:09 33.626798 -117.294559 322 8560ft 108kts
30-Dec-20 21:10 33.651432 -117.313153 322 9085ft 103kts
30-Dec-20 21:11 33.676560 -117.332107 323 9490ft 109kts
30-Dec-20 21:12 33.702437 -117.351622 323 9891ft 110kts
30-Dec-20 21:13 33.728480 -117.371306 321 10294ft 110kts
30-Dec-20 21:14 33.754417 -117.392810 320 10509ft 123kts
30-Dec-20 21:15 33.784189 -117.417659 321 10504ft 131kts
30-Dec-20 21:16 33.814561 -117.443077 321 10499ft 133kts
30-Dec-20 21:17 33.845256 -117.468793 321 10499ft 134kts
30-Dec-20 21:18 33.875963 -117.494543 321 10499ft 134kts
30-Dec-20 21:19 33.906665 -117.520314 321 10495ft 135kts
30-Dec-20 21:20 33.927113 -117.555571 289 10499ft 128kts
30-Dec-20 21:21 33.941300 -117.595252 288 10501ft 128kts
30-Dec-20 21:21 33.953026 -117.628439 288 10500ft 128kts
30-Dec-20 21:23 33.969409 -117.674908 287 10502ft 129kts
30-Dec-20 21:24 33.983408 -117.714672 287 10500ft 129kts
30-Dec-20 21:24 33.995074 -117.747921 287 10500ft 129kts
30-Dec-20 21:25 34.007889 -117.787942 285 10528ft 127kts
30-Dec-20 21:26 34.020350 -117.828089 285 10529ft 127kts
30-Dec-20 21:27 34.032737 -117.868151 285 10504ft 128kts
30-Dec-20 21:28 34.045015 -117.907936 285 10503ft 127kts
30-Dec-20 21:29 34.057243 -117.947617 285 10503ft 128kts
30-Dec-20 21:30 34.069549 -117.987603 285 10508ft 127kts
30-Dec-20 21:31 34.081920 -118.027849 285 10507ft 128kts
30-Dec-20 21:32 34.094305 -118.068180 285 10505ft 128kts
30-Dec-20 21:33 34.106706 -118.108633 285 10499ft 128kts
30-Dec-20 21:34 34.119107 -118.149143 285 10500ft 128kts
30-Dec-20 21:35 34.131469 -118.189594 285 10502ft 128kts
30-Dec-20 21:36 34.143889 -118.230298 285 10476ft 129kts
30-Dec-20 21:37 34.160321 -118.268649 322 10472ft 134kts
30-Dec-20 21:38 34.193152 -118.290616 330 10508ft 133kts
30-Dec-20 21:39 34.227006 -118.310801 331 10504ft 135kts
30-Dec-20 21:40 34.261084 -118.330693 331 10507ft 136kts
30-Dec-20 21:41 34.295252 -118.350538 331 10506ft 136kts
30-Dec-20 21:42 34.329527 -118.370503 331 10502ft 136kts
30-Dec-20 21:43 34.363704 -118.390405 331 10502ft 136kts
30-Dec-20 21:44 34.397906 -118.410335 332 10502ft 136kts
30-Dec-20 21:45 34.431921 -118.430164 332 10506ft 134kts
30-Dec-20 21:46 34.465730 -118.449898 332 10504ft 135kts
30-Dec-20 21:47 34.499608 -118.469688 331 10509ft 135kts
30-Dec-20 21:48 34.533569 -118.489644 332 10505ft 135kts
30-Dec-20 21:49 34.567077 -118.509273 331 10617ft 127kts
30-Dec-20 21:50 34.597230 -118.526914 330 11014ft 115kts
30-Dec-20 21:51 34.628571 -118.545259 331 11033ft 131kts
30-Dec-20 21:52 34.662259 -118.565084 332 11004ft 134kts
30-Dec-20 21:53 34.697139 -118.561864 31 11001ft 135kts
30-Dec-20 21:54 34.729017 -118.537056 37 11001ft 135kts
30-Dec-20 21:55 34.760121 -118.510894 37 11002ft 136kts
30-Dec-20 21:56 34.791246 -118.484224 36 11003ft 136kts
30-Dec-20 21:57 34.821801 -118.457691 36 11126ft 131kts
30-Dec-20 21:58 34.852789 -118.431240 36 11012ft 142kts
30-Dec-20 21:59 34.884729 -118.403890 37 10994ft 138kts
30-Dec-20 22:00 34.916512 -118.376400 36 10903ft 140kts
30-Dec-20 22:01 34.947050 -118.350026 36 10994ft 135kts
30-Dec-20 22:02 34.977898 -118.323370 36 11003ft 136kts
30-Dec-20 22:03 35.009531 -118.297209 32 10773ft 137kts
30-Dec-20 22:04 35.042342 -118.273405 31 10393ft 136kts
30-Dec-20 22:05 35.074809 -118.249995 32 10042ft 131kts
30-Dec-20 22:06 35.104572 -118.228553 32 9992ft 118kts
30-Dec-20 22:07 35.133645 -118.207620 32 9999ft 128kts
30-Dec-20 22:08 35.165360 -118.184745 31 9998ft 134kts
30-Dec-20 22:09 35.197866 -118.161266 32 9976ft 134kts
30-Dec-20 22:10 35.230659 -118.137481 31 9489ft 138kts
30-Dec-20 22:11 35.264037 -118.113254 31 8984ft 140kts
30-Dec-20 22:12 35.297647 -118.088893 30 8480ft 140kts
30-Dec-20 22:13 35.331319 -118.064521 30 7979ft 141kts
30-Dec-20 22:14 35.365195 -118.039885 29 7473ft 141kts
30-Dec-20 22:15 35.399066 -118.015268 29 7046ft 137kts
30-Dec-20 22:16 35.431449 -117.991766 29 6795ft 135kts
30-Dec-20 22:17 35.464974 -117.967173 29 6293ft 139kts
30-Dec-20 22:18 35.497370 -117.943852 28 5815ft 132kts
30-Dec-20 22:19 35.529046 -117.920451 27 5257ft 135kts
30-Dec-20 22:20 35.561535 -117.896062 30 4602ft 138kts
30-Dec-20 22:21 35.591578 -117.872400 28 3940ft 111kts
30-Dec-20 22:22 35.614898 -117.854954 23 3345ft 86kts
30-Dec-20 22:23 35.636562 -117.841641 22 2882ft 87kts
30-Dec-20 22:24 35.655142 -117.828402 31 2461ft 50kts
30-Dec-20 22:25 35.660701 -117.824258 31 2461ft 18kts
30-Dec-20 22:26 35.662243 -117.822243 166 2461ft 8kts
30-Dec-20 22:27 35.661542 -117.822076 167 2461ft 0kts
30-Dec-20 22:28 35.660298 -117.822517 213 2461ft 8kts
30-Dec-20 22:29 35.657627 -117.824462 211 2461ft 12kts
30-Dec-20 22:30 35.654490 -117.826762 213 2461ft 14kts
30-Dec-20 22:31 35.653330 -117.827095 215 2461ft 0kts
30-Dec-20 22:32 35.653330 -117.827095 215 2461ft 0kts
30-Dec-20 22:33 35.653330 -117.827095 215 2461ft 0kts
30-Dec-20 22:34 35.653330 -117.827095 215 2461ft 0kts
30-Dec-20 22:35 35.653330 -117.827095 215 2461ft 0kts
30-Dec-20 22:36 35.653330 -117.827095 215 2461ft 0kts

Navigation Log

Ident Type
Flight plan parsing failed, navigation log unavailable